createdAt,value
2023-05-18T00:00:04.297Z,72.42
2023-05-18T00:02:31.984Z,72.32
2023-05-18T00:05:02.393Z,72.44
2023-05-18T00:07:34.330Z,72.42
2023-05-18T00:10:04.013Z,72.54
2023-05-18T00:12:31.048Z,72.38
2023-05-18T00:14:57.954Z,72.36
2023-05-18T00:17:25.058Z,72.54
2023-05-18T00:19:52.051Z,72.65
2023-05-18T00:22:19.228Z,72.70
2023-05-18T00:24:46.778Z,72.80
2023-05-18T00:27:13.886Z,72.90
2023-05-18T00:29:40.824Z,72.74
2023-05-18T00:32:08.205Z,72.71
2023-05-18T00:34:37.453Z,72.68
2023-05-18T00:37:04.528Z,72.74
2023-05-18T00:39:31.481Z,72.60
2023-05-18T00:41:58.605Z,72.45
2023-05-18T00:44:25.800Z,72.35
2023-05-18T00:46:52.716Z,72.31
2023-05-18T00:49:19.742Z,72.43
2023-05-18T00:51:47.055Z,72.46
2023-05-18T00:54:14.096Z,72.29
2023-05-18T00:56:46.390Z,72.38
2023-05-18T00:59:13.583Z,72.38
2023-05-18T01:01:47.034Z,72.59
2023-05-18T01:04:16.768Z,72.62
2023-05-18T01:06:43.972Z,72.52
2023-05-18T01:09:11.963Z,72.36
2023-05-18T01:11:57.716Z,72.37
2023-05-18T01:14:37.541Z,72.42
2023-05-18T01:17:50.287Z,72.43
2023-05-18T01:20:37.953Z,72.47
2023-05-18T01:23:30.044Z,72.52
2023-05-18T01:25:57.158Z,72.45
2023-05-18T01:28:28.595Z,72.57
2023-05-18T01:30:56.056Z,72.70
2023-05-18T01:33:24.790Z,72.83
2023-05-18T01:35:51.998Z,72.83
2023-05-18T01:38:20.872Z,72.91
2023-05-18T01:41:01.663Z,73.04
2023-05-18T01:43:38.397Z,73.28
2023-05-18T01:46:33.468Z,73.24
2023-05-18T01:49:05.011Z,73.21
2023-05-18T01:51:34.071Z,73.28
2023-05-18T01:54:03.889Z,73.27
2023-05-18T01:56:30.921Z,73.38
2023-05-18T01:58:58.043Z,73.26
2023-05-18T02:01:25.136Z,73.21
2023-05-18T02:03:52.227Z,73.31
2023-05-18T02:06:19.404Z,73.30
2023-05-18T02:08:46.278Z,73.48
2023-05-18T02:11:13.275Z,73.60
2023-05-18T02:13:40.733Z,73.46
2023-05-18T02:16:08.795Z,73.35
2023-05-18T02:20:18.781Z,73.38
2023-05-18T02:22:46.571Z,73.56
2023-05-18T02:25:13.542Z,73.38
2023-05-18T02:27:40.661Z,73.28
2023-05-18T02:30:09.066Z,73.19
2023-05-18T02:32:39.394Z,73.40
2023-05-18T02:35:07.259Z,73.62
2023-05-18T02:37:39.937Z,73.52
2023-05-18T02:40:10.641Z,73.54
2023-05-18T02:42:37.625Z,73.56
2023-05-18T02:45:05.287Z,73.46
2023-05-18T02:47:33.123Z,73.60
2023-05-18T02:50:00.196Z,73.74
2023-05-18T02:52:27.831Z,73.73
2023-05-18T02:54:56.419Z,73.62
2023-05-18T02:57:34.087Z,73.64
2023-05-18T03:00:11.876Z,73.77
2023-05-18T03:02:40.514Z,73.75
2023-05-18T03:05:08.003Z,73.71
2023-05-18T03:07:34.885Z,73.86
2023-05-18T03:10:03.841Z,73.91
2023-05-18T03:12:31.464Z,73.94
2023-05-18T03:14:58.399Z,73.92
2023-05-18T03:17:25.410Z,73.71
2023-05-18T03:19:52.810Z,73.79
2023-05-18T03:22:19.720Z,73.86
2023-05-18T03:24:46.705Z,73.87
2023-05-18T03:27:20.526Z,74.06
2023-05-18T03:29:47.515Z,73.99
2023-05-18T03:32:14.482Z,74.02
2023-05-18T03:34:41.508Z,74.00
2023-05-18T03:37:08.690Z,73.84
2023-05-18T03:39:35.945Z,73.83
2023-05-18T03:42:02.991Z,73.73
2023-05-18T03:44:31.407Z,73.53
2023-05-18T03:46:58.371Z,73.48
2023-05-18T03:49:25.260Z,73.58
2023-05-18T03:51:54.532Z,73.66
2023-05-18T03:54:21.547Z,73.51
2023-05-18T03:56:48.523Z,73.19
2023-05-18T03:59:15.557Z,72.95
2023-05-18T04:02:03.161Z,72.95
2023-05-18T04:04:31.094Z,72.96
2023-05-18T04:06:58.202Z,73.06
2023-05-18T04:09:25.139Z,73.12
2023-05-18T04:11:52.177Z,73.22
2023-05-18T04:14:21.066Z,73.41
2023-05-18T04:16:48.186Z,73.67
2023-05-18T04:19:16.033Z,73.62
2023-05-18T04:21:43.839Z,73.70
2023-05-18T04:24:14.669Z,73.74
2023-05-18T04:26:42.690Z,73.76
2023-05-18T04:29:11.036Z,74.00
2023-05-18T04:31:38.138Z,74.17
2023-05-18T04:34:07.553Z,74.28
2023-05-18T04:36:35.378Z,74.18
2023-05-18T04:39:05.553Z,74.09
2023-05-18T04:41:34.228Z,73.85
2023-05-18T04:44:02.175Z,73.73
2023-05-18T04:46:34.138Z,73.83
2023-05-18T04:49:02.358Z,73.81
2023-05-18T04:51:34.806Z,73.62
2023-05-18T04:54:03.531Z,73.54
2023-05-18T04:56:30.586Z,73.33
2023-05-18T04:58:59.631Z,73.25
2023-05-18T05:01:27.891Z,73.17
2023-05-18T05:03:55.576Z,73.05
2023-05-18T05:06:23.905Z,72.98
2023-05-18T05:08:50.947Z,73.00
2023-05-18T05:11:17.850Z,73.16
2023-05-18T05:13:44.964Z,73.32
2023-05-18T05:16:12.133Z,73.34
2023-05-18T05:18:40.373Z,73.23
2023-05-18T05:21:07.432Z,73.10
2023-05-18T05:23:34.964Z,72.91
2023-05-18T05:26:02.756Z,72.83
2023-05-18T05:28:29.879Z,72.65
2023-05-18T05:30:56.874Z,72.69
2023-05-18T05:33:23.886Z,72.77
2023-05-18T05:35:51.216Z,72.86
2023-05-18T05:38:18.147Z,72.90
2023-05-18T05:40:45.122Z,72.77
2023-05-18T05:43:13.017Z,72.73
2023-05-18T05:45:43.980Z,72.92
2023-05-18T05:48:13.722Z,72.93
2023-05-18T05:50:41.318Z,72.98
2023-05-18T05:53:08.261Z,72.98
2023-05-18T05:55:41.453Z,73.17
2023-05-18T05:58:12.510Z,73.30
2023-05-18T06:00:40.897Z,73.61
2023-05-18T06:03:08.601Z,73.64
2023-05-18T06:05:39.507Z,73.46
2023-05-18T06:08:09.381Z,73.20
2023-05-18T06:10:36.504Z,73.33
2023-05-18T06:13:04.229Z,73.37
2023-05-18T06:15:38.896Z,73.59
2023-05-18T06:18:06.035Z,73.64
2023-05-18T06:20:33.276Z,73.56
2023-05-18T06:23:03.870Z,73.51
2023-05-18T06:25:59.748Z,73.57
2023-05-18T06:28:47.016Z,73.75
2023-05-18T06:31:33.608Z,73.78
2023-05-18T06:34:13.062Z,73.81
2023-05-18T06:36:40.979Z,73.87
2023-05-18T06:39:10.842Z,73.86
2023-05-18T06:41:37.813Z,73.89
2023-05-18T06:44:06.453Z,73.87
2023-05-18T06:46:37.374Z,73.76
2023-05-18T06:49:23.204Z,73.84
2023-05-18T06:51:51.010Z,73.89
2023-05-18T06:54:18.017Z,73.63
2023-05-18T06:56:47.292Z,73.59
2023-05-18T06:59:17.758Z,73.33
2023-05-18T07:01:44.875Z,73.14
2023-05-18T07:04:16.477Z,73.32
2023-05-18T07:06:43.741Z,73.47
2023-05-18T07:09:15.214Z,73.64
2023-05-18T07:11:42.219Z,73.45
2023-05-18T07:14:09.662Z,73.52
2023-05-18T07:16:37.233Z,73.62
2023-05-18T07:19:05.157Z,73.67
2023-05-18T07:21:33.414Z,73.79
2023-05-18T07:24:02.365Z,73.85
2023-05-18T07:26:30.079Z,73.67
2023-05-18T07:28:57.014Z,73.78
2023-05-18T07:31:24.242Z,73.75
2023-05-18T07:33:51.435Z,73.76
2023-05-18T07:36:18.323Z,73.68
2023-05-18T07:38:45.297Z,73.70
2023-05-18T07:41:12.400Z,73.80
2023-05-18T07:43:39.503Z,73.87
2023-05-18T07:46:07.102Z,74.03
2023-05-18T07:48:35.406Z,74.02
2023-05-18T07:51:02.377Z,74.01
2023-05-18T07:53:29.437Z,74.18
2023-05-18T07:55:57.300Z,73.94
2023-05-18T07:58:24.280Z,74.03
2023-05-18T08:00:52.102Z,74.08
2023-05-18T08:03:19.594Z,74.04
2023-05-18T08:05:46.727Z,73.97
2023-05-18T08:08:18.378Z,73.82
2023-05-18T08:18:39.021Z,73.48
2023-05-18T08:21:10.957Z,73.32
2023-05-18T08:23:39.028Z,73.13
2023-05-18T08:26:06.353Z,72.89
2023-05-18T08:28:33.779Z,72.93
2023-05-18T08:31:05.611Z,73.24
2023-05-18T08:33:34.051Z,73.24
2023-05-18T08:36:01.267Z,73.03
2023-05-18T08:38:28.239Z,73.10
2023-05-18T08:41:01.987Z,73.02
2023-05-18T08:43:44.320Z,72.72
2023-05-18T08:46:17.368Z,72.63
2023-05-18T08:48:45.083Z,72.52
2023-05-18T08:51:14.381Z,72.34
2023-05-18T08:54:40.874Z,72.18
2023-05-18T08:57:11.629Z,72.09
2023-05-18T09:00:47.474Z,71.98
2023-05-18T09:03:15.689Z,71.89
2023-05-18T09:05:42.872Z,71.87
2023-05-18T09:08:10.875Z,71.56
2023-05-18T09:10:39.604Z,71.42
2023-05-18T09:13:08.154Z,71.24
2023-05-18T09:15:36.790Z,71.14
2023-05-18T09:18:04.791Z,71.15
2023-05-18T09:20:32.268Z,71.11
2023-05-18T09:22:59.951Z,70.98
2023-05-18T09:25:31.415Z,71.16
2023-05-18T09:27:59.657Z,71.34
2023-05-18T09:30:26.669Z,71.52
2023-05-18T09:32:53.799Z,71.87
2023-05-18T09:35:23.289Z,71.90
2023-05-18T09:37:55.727Z,71.74
2023-05-18T09:40:23.043Z,71.67
2023-05-18T09:42:50.097Z,71.81
2023-05-18T09:45:23.812Z,71.86
2023-05-18T09:47:51.571Z,71.94
2023-05-18T09:50:22.364Z,71.79
2023-05-18T09:52:49.518Z,71.51
2023-05-18T09:55:17.396Z,71.51
2023-05-18T09:57:48.184Z,71.88
2023-05-18T10:00:15.819Z,72.05
2023-05-18T10:02:48.919Z,71.73
2023-05-18T10:05:36.740Z,71.54
2023-05-18T10:08:04.280Z,71.71
2023-05-18T10:10:35.297Z,71.71
2023-05-18T10:13:02.369Z,71.80
2023-05-18T10:15:29.573Z,71.77
2023-05-18T10:17:57.578Z,71.81
2023-05-18T10:20:27.651Z,71.89
2023-05-18T10:22:59.112Z,71.73
2023-05-18T10:25:26.814Z,71.94
2023-05-18T10:27:58.343Z,72.26
2023-05-18T10:38:07.981Z,71.94
2023-05-18T10:40:35.027Z,71.90
2023-05-18T10:43:03.722Z,71.94
2023-05-18T10:45:33.921Z,71.92
2023-05-18T10:48:01.822Z,72.07
2023-05-18T10:50:32.854Z,72.03
2023-05-18T10:53:04.540Z,71.94
2023-05-18T10:55:32.758Z,72.18
2023-05-18T10:58:07.995Z,72.14
2023-05-18T11:00:35.652Z,72.46
2023-05-18T11:03:02.683Z,72.77
2023-05-18T11:05:31.252Z,72.96
2023-05-18T11:08:06.887Z,73.45
2023-05-18T11:10:42.868Z,73.61
2023-05-18T11:13:11.589Z,73.69
2023-05-18T11:16:06.309Z,73.51
2023-05-18T11:18:49.984Z,73.32
2023-05-18T11:21:23.497Z,73.31
2023-05-18T11:24:28.202Z,73.25
2023-05-18T11:27:00.413Z,73.19
2023-05-18T11:29:31.169Z,73.09
2023-05-18T11:32:05.292Z,72.63
2023-05-18T11:34:45.049Z,72.38
2023-05-18T11:37:16.302Z,72.20
2023-05-18T11:40:00.958Z,72.12
2023-05-18T11:42:33.638Z,71.87
2023-05-18T11:45:10.561Z,71.84
2023-05-18T11:47:38.231Z,71.79
2023-05-18T11:50:09.335Z,71.75
2023-05-18T11:52:47.213Z,71.68
2023-05-18T11:55:15.310Z,71.53
2023-05-18T11:57:46.467Z,71.55
2023-05-18T12:00:14.014Z,71.31
2023-05-18T12:02:46.162Z,71.21
2023-05-18T12:05:14.000Z,71.00
2023-05-18T12:07:41.756Z,71.23
2023-05-18T12:10:12.950Z,71.12
2023-05-18T12:12:40.273Z,71.16
2023-05-18T12:15:08.653Z,71.24
2023-05-18T12:17:40.402Z,71.14
2023-05-18T12:20:12.030Z,70.88
2023-05-18T12:22:39.967Z,70.76
2023-05-18T12:25:07.977Z,71.14
2023-05-18T12:27:44.859Z,71.11
2023-05-18T12:30:13.947Z,71.07
2023-05-18T12:32:45.105Z,70.99
2023-05-18T12:35:12.382Z,71.12
2023-05-18T12:37:46.373Z,71.39
2023-05-18T12:40:14.369Z,71.37
2023-05-18T12:42:52.002Z,71.31
2023-05-18T12:45:18.913Z,71.19
2023-05-18T12:47:46.002Z,71.22
2023-05-18T12:50:13.009Z,71.36
2023-05-18T12:52:39.935Z,71.60
2023-05-18T12:55:10.677Z,71.58
2023-05-18T12:57:41.633Z,71.74
2023-05-18T13:00:10.786Z,71.50
2023-05-18T13:02:38.031Z,71.55
2023-05-18T13:05:10.128Z,71.53
2023-05-18T13:07:41.809Z,71.74
2023-05-18T13:10:10.312Z,71.59
2023-05-18T13:12:50.766Z,71.39
2023-05-18T13:15:19.192Z,71.35
2023-05-18T13:17:59.244Z,71.30
2023-05-18T13:20:37.025Z,71.16
2023-05-18T13:23:07.244Z,71.04
2023-05-18T13:25:34.275Z,71.14
2023-05-18T13:28:04.549Z,71.35
2023-05-18T13:30:32.317Z,71.28
2023-05-18T13:32:59.825Z,71.43
2023-05-18T13:35:42.211Z,71.61
2023-05-18T13:38:10.171Z,71.59
2023-05-18T13:40:37.789Z,71.86
2023-05-18T13:43:06.207Z,71.90
2023-05-18T13:45:33.423Z,71.94
2023-05-18T13:48:00.783Z,71.92
2023-05-18T13:50:27.853Z,71.98
2023-05-18T13:52:54.766Z,72.25
2023-05-18T13:55:22.069Z,72.16
2023-05-18T13:57:53.773Z,71.88
2023-05-18T14:00:21.581Z,71.90
2023-05-18T14:02:48.584Z,71.96
2023-05-18T14:05:16.458Z,71.97
2023-05-18T14:07:43.579Z,71.76
2023-05-18T14:10:11.576Z,71.92
2023-05-18T14:12:38.620Z,71.62
2023-05-18T14:15:06.088Z,71.46
2023-05-18T14:17:33.066Z,71.55
2023-05-18T14:20:00.154Z,71.69
2023-05-18T14:22:27.576Z,71.50
2023-05-18T14:24:54.632Z,71.37
2023-05-18T14:27:21.562Z,71.39
2023-05-18T14:29:49.009Z,71.48
2023-05-18T14:32:16.034Z,71.63
2023-05-18T14:37:40.963Z,72.06
2023-05-18T14:40:08.578Z,72.03
2023-05-18T14:42:37.411Z,72.12
2023-05-18T14:45:05.185Z,72.28
2023-05-18T14:47:32.326Z,72.71
2023-05-18T14:50:02.449Z,72.92
2023-05-18T14:52:29.443Z,73.04
2023-05-18T14:54:56.403Z,73.14
2023-05-18T14:57:25.944Z,73.24
2023-05-18T14:59:53.710Z,73.63
2023-05-18T15:02:20.695Z,73.91
2023-05-18T15:04:47.657Z,74.17
2023-05-18T15:07:14.576Z,74.48
2023-05-18T15:09:41.565Z,74.55
2023-05-18T15:12:08.629Z,74.69
2023-05-18T15:14:36.049Z,74.66
2023-05-18T15:17:03.198Z,74.79
2023-05-18T15:19:30.467Z,75.14
2023-05-18T15:21:57.516Z,75.31
2023-05-18T15:24:26.467Z,75.53
2023-05-18T15:26:53.434Z,75.67
2023-05-18T15:29:20.407Z,75.61
2023-05-18T15:31:51.234Z,75.72
2023-05-18T15:34:18.507Z,75.88
2023-05-18T15:36:45.477Z,75.99
2023-05-18T15:39:12.428Z,75.91
2023-05-18T15:41:39.366Z,75.61
2023-05-18T15:44:06.359Z,75.43
2023-05-18T15:46:35.962Z,75.30
2023-05-18T15:49:02.975Z,75.15
2023-05-18T15:51:31.311Z,75.28
2023-05-18T15:53:58.287Z,75.41
2023-05-18T15:56:28.216Z,75.29
2023-05-18T15:58:57.533Z,75.29
2023-05-18T16:01:24.615Z,75.32
2023-05-18T16:03:51.737Z,75.06
2023-05-18T16:06:18.698Z,74.84
2023-05-18T16:08:48.600Z,74.73
2023-05-18T16:11:15.506Z,74.80
2023-05-18T16:13:42.505Z,74.98
2023-05-18T16:16:21.283Z,74.97
2023-05-18T16:18:50.124Z,75.04
2023-05-18T16:21:18.701Z,74.89
2023-05-18T16:23:50.210Z,75.14
2023-05-18T16:26:18.136Z,75.09
2023-05-18T16:28:47.283Z,75.22
2023-05-18T16:31:15.025Z,75.23
2023-05-18T16:33:42.265Z,75.28
2023-05-18T16:36:10.000Z,75.22
2023-05-18T16:38:42.620Z,75.31
2023-05-18T16:41:09.758Z,75.20
2023-05-18T16:43:37.920Z,75.27
2023-05-18T16:46:08.326Z,75.26
2023-05-18T16:48:36.145Z,75.32
2023-05-18T16:51:07.232Z,75.40
2023-05-18T16:53:35.248Z,75.56
2023-05-18T16:56:03.151Z,75.49
2023-05-18T16:58:30.351Z,75.33
2023-05-18T17:00:58.044Z,75.04
2023-05-18T17:03:25.355Z,75.23
2023-05-18T17:06:20.300Z,75.46
2023-05-18T17:08:57.515Z,75.73
2023-05-18T17:11:27.894Z,75.61
2023-05-18T17:14:03.646Z,75.41
2023-05-18T17:16:33.787Z,75.53
2023-05-18T17:19:02.753Z,75.70
2023-05-18T17:21:32.728Z,75.79
2023-05-18T17:23:59.777Z,76.02
2023-05-18T17:26:33.973Z,75.86
2023-05-18T17:29:06.379Z,76.03
2023-05-18T17:31:35.788Z,76.20
2023-05-18T17:34:03.473Z,76.09
2023-05-18T17:36:31.195Z,75.84
2023-05-18T17:38:58.621Z,75.87
2023-05-18T17:41:26.499Z,75.85
2023-05-18T17:43:53.799Z,75.93
2023-05-18T17:46:20.734Z,75.90
2023-05-18T17:48:50.610Z,75.79
2023-05-18T17:51:18.203Z,75.68
2023-05-18T17:53:46.567Z,75.55
2023-05-18T17:56:14.219Z,75.51
2023-05-18T17:58:47.725Z,75.40
2023-05-18T18:01:15.342Z,75.27
2023-05-18T18:03:43.696Z,75.01
2023-05-18T18:06:10.837Z,74.81
2023-05-18T18:08:42.594Z,74.69
2023-05-18T18:11:13.476Z,74.65
2023-05-18T18:13:40.341Z,74.76
2023-05-18T18:16:07.484Z,74.77
2023-05-18T18:18:39.133Z,74.74
2023-05-18T18:21:06.752Z,74.46
2023-05-18T18:23:42.895Z,74.24
2023-05-18T18:26:11.831Z,74.51
2023-05-18T18:28:38.974Z,74.59
2023-05-18T18:31:06.007Z,74.62
2023-05-18T18:33:36.473Z,74.64
2023-05-18T18:36:06.042Z,74.66
2023-05-18T18:38:34.095Z,74.71
2023-05-18T18:41:22.535Z,75.01
2023-05-18T18:43:49.602Z,74.92
2023-05-18T18:46:17.398Z,74.97
2023-05-18T18:48:44.984Z,74.91
2023-05-18T18:51:20.832Z,74.99
2023-05-18T18:53:47.889Z,75.10
2023-05-18T18:56:22.884Z,74.71
2023-05-18T18:58:54.062Z,74.48
2023-05-18T19:01:21.159Z,74.37
2023-05-18T19:03:51.141Z,74.44
2023-05-18T19:06:18.555Z,74.23
2023-05-18T19:08:45.607Z,74.39
2023-05-18T19:11:13.028Z,74.34
2023-05-18T19:13:40.298Z,73.99
2023-05-18T19:16:07.315Z,74.07
2023-05-18T19:18:34.264Z,74.06
2023-05-18T19:21:03.821Z,73.98
2023-05-18T19:23:33.808Z,74.06
2023-05-18T19:26:03.654Z,73.88
2023-05-18T19:28:30.630Z,73.68
2023-05-18T19:30:57.478Z,73.64
2023-05-18T19:33:24.539Z,73.78
2023-05-18T19:35:52.890Z,73.81
2023-05-18T19:38:19.941Z,73.86
2023-05-18T19:40:46.916Z,73.95
2023-05-18T19:43:13.826Z,73.83
2023-05-18T19:45:40.767Z,73.74
2023-05-18T19:48:07.944Z,73.68
2023-05-18T19:50:35.354Z,73.64
2023-05-18T19:53:02.323Z,73.62
2023-05-18T19:55:33.388Z,73.48
2023-05-18T19:58:01.562Z,73.32
2023-05-18T20:00:29.561Z,73.34
2023-05-18T20:02:57.549Z,73.22
2023-05-18T20:05:25.590Z,73.01
2023-05-18T20:07:52.673Z,73.12
2023-05-18T20:10:19.821Z,73.15
2023-05-18T20:12:46.932Z,72.78
2023-05-18T20:15:13.885Z,72.72
2023-05-18T20:17:41.394Z,72.85
2023-05-18T20:20:08.872Z,72.97
2023-05-18T20:22:35.795Z,73.23
2023-05-18T20:25:05.897Z,73.13
2023-05-18T20:27:32.878Z,73.15
2023-05-18T20:29:59.916Z,73.07
2023-05-18T20:32:27.302Z,73.24
2023-05-18T20:34:54.927Z,73.35
2023-05-18T20:37:24.064Z,73.30
2023-05-18T20:39:51.640Z,73.25
2023-05-18T20:42:22.088Z,72.96
2023-05-18T20:44:52.672Z,72.79
2023-05-18T20:47:20.870Z,72.97
2023-05-18T20:49:48.268Z,73.22
2023-05-18T20:52:15.213Z,73.54
2023-05-18T20:54:43.052Z,73.71
2023-05-18T20:57:10.006Z,73.64
2023-05-18T20:59:37.055Z,73.73
2023-05-18T21:02:04.958Z,73.77
2023-05-18T21:04:32.070Z,73.76
2023-05-18T21:06:58.936Z,73.74
2023-05-18T21:09:25.839Z,73.59
2023-05-18T21:11:52.730Z,73.49
2023-05-18T21:14:21.028Z,73.29
2023-05-18T21:16:48.034Z,73.38
2023-05-18T21:19:15.002Z,73.41
2023-05-18T21:21:42.921Z,73.22
2023-05-18T21:24:09.911Z,73.08
2023-05-18T21:26:36.807Z,73.09
2023-05-18T21:29:03.764Z,73.04
2023-05-18T21:31:30.690Z,72.92
2023-05-18T21:33:57.574Z,72.96
2023-05-18T21:36:33.937Z,72.86
2023-05-18T21:39:01.834Z,72.84
2023-05-18T21:41:28.841Z,72.73
2023-05-18T21:43:57.815Z,72.83
2023-05-18T21:46:25.077Z,72.84
2023-05-18T21:48:52.094Z,72.85
2023-05-18T21:51:19.017Z,72.78
2023-05-18T21:53:45.980Z,72.68
2023-05-18T21:56:13.010Z,72.70
2023-05-18T21:58:39.943Z,72.92
2023-05-18T22:01:06.890Z,73.08
2023-05-18T22:03:33.793Z,72.96
2023-05-18T22:06:00.766Z,73.05
2023-05-18T22:08:27.958Z,72.83
2023-05-18T22:10:54.816Z,72.87
2023-05-18T22:13:21.721Z,72.91
2023-05-18T22:15:48.783Z,72.83
2023-05-18T22:18:15.745Z,73.03
2023-05-18T22:20:42.681Z,73.00
2023-05-18T22:23:09.602Z,72.82
2023-05-18T22:25:36.523Z,72.70
2023-05-18T22:28:03.442Z,72.46
2023-05-18T22:30:30.657Z,72.45
2023-05-18T22:32:58.728Z,72.76
2023-05-18T22:35:25.688Z,72.98
2023-05-18T22:37:52.577Z,72.94
2023-05-18T22:40:19.495Z,72.90
2023-05-18T22:42:46.429Z,73.02
2023-05-18T22:45:14.097Z,73.06
2023-05-18T22:47:41.120Z,72.98
2023-05-18T22:50:08.867Z,72.83
2023-05-18T22:52:36.824Z,72.82
2023-05-18T22:55:05.615Z,73.01
2023-05-18T22:57:32.501Z,73.13
2023-05-18T22:59:59.511Z,73.27
2023-05-18T23:02:27.335Z,73.35
2023-05-18T23:04:54.321Z,73.39
2023-05-18T23:07:22.118Z,73.26
2023-05-18T23:09:48.984Z,73.32
2023-05-18T23:12:15.857Z,73.36
2023-05-18T23:14:44.707Z,73.32
2023-05-18T23:17:11.675Z,73.27
2023-05-18T23:19:39.433Z,73.30
2023-05-18T23:22:06.467Z,73.09
2023-05-18T23:24:33.309Z,73.10
2023-05-18T23:27:00.185Z,73.20
2023-05-18T23:29:27.241Z,73.18
2023-05-18T23:31:54.263Z,73.17
2023-05-18T23:34:21.508Z,73.04
2023-05-18T23:36:48.626Z,72.79
2023-05-18T23:39:15.472Z,72.63
2023-05-18T23:41:42.360Z,72.65
2023-05-18T23:44:09.690Z,72.64
2023-05-18T23:46:37.004Z,72.67
2023-05-18T23:49:04.616Z,72.57
2023-05-18T23:51:33.490Z,72.35
2023-05-18T23:54:00.679Z,72.45
2023-05-18T23:56:28.359Z,72.53
2023-05-18T23:58:55.439Z,72.52
